sensor_id;sensor_type;location;lat;lon;timestamp;P1;durP1;ratioP1;P2;durP2;ratioP2
14381;SDS011;7275;50.328;8.720;2023-04-24T00:02:24;1.37;;;1.27;;
14381;SDS011;7275;50.328;8.720;2023-04-24T00:04:52;1.40;;;1.10;;
14381;SDS011;7275;50.328;8.720;2023-04-24T00:07:21;1.10;;;1.00;;
14381;SDS011;7275;50.328;8.720;2023-04-24T00:09:49;0.93;;;0.90;;
14381;SDS011;7275;50.328;8.720;2023-04-24T00:12:16;1.43;;;1.10;;
14381;SDS011;7275;50.328;8.720;2023-04-24T00:14:43;1.60;;;1.23;;
14381;SDS011;7275;50.328;8.720;2023-04-24T00:17:11;1.40;;;1.10;;
14381;SDS011;7275;50.328;8.720;2023-04-24T00:19:38;1.20;;;1.00;;
14381;SDS011;7275;50.328;8.720;2023-04-24T00:22:06;1.43;;;1.10;;
14381;SDS011;7275;50.328;8.720;2023-04-24T00:24:35;1.20;;;1.10;;
14381;SDS011;7275;50.328;8.720;2023-04-24T00:27:03;2.17;;;1.20;;
14381;SDS011;7275;50.328;8.720;2023-04-24T00:29:30;1.90;;;1.00;;
14381;SDS011;7275;50.328;8.720;2023-04-24T00:31:58;2.83;;;1.00;;
14381;SDS011;7275;50.328;8.720;2023-04-24T00:34:26;1.20;;;1.00;;
14381;SDS011;7275;50.328;8.720;2023-04-24T00:36:53;1.33;;;1.00;;
14381;SDS011;7275;50.328;8.720;2023-04-24T00:39:21;1.30;;;1.00;;
14381;SDS011;7275;50.328;8.720;2023-04-24T00:41:50;1.40;;;1.10;;
14381;SDS011;7275;50.328;8.720;2023-04-24T00:44:19;1.53;;;1.10;;
14381;SDS011;7275;50.328;8.720;2023-04-24T00:46:46;1.20;;;1.10;;
14381;SDS011;7275;50.328;8.720;2023-04-24T00:49:17;1.20;;;1.00;;
14381;SDS011;7275;50.328;8.720;2023-04-24T00:51:45;1.53;;;1.10;;
14381;SDS011;7275;50.328;8.720;2023-04-24T00:54:13;1.13;;;1.00;;
14381;SDS011;7275;50.328;8.720;2023-04-24T00:56:40;1.30;;;0.93;;
14381;SDS011;7275;50.328;8.720;2023-04-24T00:59:10;1.10;;;1.00;;
14381;SDS011;7275;50.328;8.720;2023-04-24T01:01:38;1.20;;;1.00;;
14381;SDS011;7275;50.328;8.720;2023-04-24T01:04:08;1.37;;;1.00;;
14381;SDS011;7275;50.328;8.720;2023-04-24T01:06:37;0.97;;;0.90;;
14381;SDS011;7275;50.328;8.720;2023-04-24T01:09:06;1.73;;;1.10;;
14381;SDS011;7275;50.328;8.720;2023-04-24T01:11:35;1.23;;;1.00;;
14381;SDS011;7275;50.328;8.720;2023-04-24T01:14:03;0.77;;;0.77;;
14381;SDS011;7275;50.328;8.720;2023-04-24T01:16:32;1.10;;;1.00;;
14381;SDS011;7275;50.328;8.720;2023-04-24T01:19:00;1.10;;;1.00;;
14381;SDS011;7275;50.328;8.720;2023-04-24T01:21:27;1.43;;;0.90;;
14381;SDS011;7275;50.328;8.720;2023-04-24T01:23:58;1.23;;;1.13;;
14381;SDS011;7275;50.328;8.720;2023-04-24T01:26:26;1.00;;;0.90;;
14381;SDS011;7275;50.328;8.720;2023-04-24T01:28:53;1.50;;;1.00;;
14381;SDS011;7275;50.328;8.720;2023-04-24T01:31:21;1.10;;;1.00;;
14381;SDS011;7275;50.328;8.720;2023-04-24T01:33:49;1.30;;;1.10;;
14381;SDS011;7275;50.328;8.720;2023-04-24T01:36:17;1.17;;;1.07;;
14381;SDS011;7275;50.328;8.720;2023-04-24T01:38:46;1.60;;;1.10;;
14381;SDS011;7275;50.328;8.720;2023-04-24T01:41:14;1.77;;;1.20;;
14381;SDS011;7275;50.328;8.720;2023-04-24T01:43:42;4.10;;;1.00;;
14381;SDS011;7275;50.328;8.720;2023-04-24T01:46:10;1.20;;;1.10;;
14381;SDS011;7275;50.328;8.720;2023-04-24T01:48:37;1.30;;;1.20;;
14381;SDS011;7275;50.328;8.720;2023-04-24T01:51:05;1.47;;;1.07;;
14381;SDS011;7275;50.328;8.720;2023-04-24T01:53:33;1.70;;;1.10;;
14381;SDS011;7275;50.328;8.720;2023-04-24T01:56:00;1.80;;;1.20;;
14381;SDS011;7275;50.328;8.720;2023-04-24T01:58:30;1.40;;;1.00;;
14381;SDS011;7275;50.328;8.720;2023-04-24T02:00:57;1.00;;;0.90;;
14381;SDS011;7275;50.328;8.720;2023-04-24T02:03:26;1.97;;;1.10;;
14381;SDS011;7275;50.328;8.720;2023-04-24T02:05:54;1.20;;;1.10;;
14381;SDS011;7275;50.328;8.720;2023-04-24T02:08:21;1.17;;;0.87;;
14381;SDS011;7275;50.328;8.720;2023-04-24T02:10:49;1.23;;;1.10;;
14381;SDS011;7275;50.328;8.720;2023-04-24T02:13:16;1.73;;;1.10;;
14381;SDS011;7275;50.328;8.720;2023-04-24T02:15:45;1.10;;;0.87;;
14381;SDS011;7275;50.328;8.720;2023-04-24T02:18:12;1.23;;;1.10;;
14381;SDS011;7275;50.328;8.720;2023-04-24T02:20:41;1.10;;;1.00;;
14381;SDS011;7275;50.328;8.720;2023-04-24T02:23:09;1.10;;;1.00;;
14381;SDS011;7275;50.328;8.720;2023-04-24T02:25:36;1.60;;;1.00;;
14381;SDS011;7275;50.328;8.720;2023-04-24T02:28:04;1.87;;;1.17;;
14381;SDS011;7275;50.328;8.720;2023-04-24T02:30:31;2.00;;;1.10;;
14381;SDS011;7275;50.328;8.720;2023-04-24T02:33:00;1.10;;;0.93;;
14381;SDS011;7275;50.328;8.720;2023-04-24T02:35:27;1.70;;;1.20;;
14381;SDS011;7275;50.328;8.720;2023-04-24T02:37:55;4.17;;;1.20;;
14381;SDS011;7275;50.328;8.720;2023-04-24T02:40:23;1.37;;;1.10;;
14381;SDS011;7275;50.328;8.720;2023-04-24T02:42:50;2.03;;;1.20;;
14381;SDS011;7275;50.328;8.720;2023-04-24T02:45:18;1.30;;;1.10;;
14381;SDS011;7275;50.328;8.720;2023-04-24T02:47:45;1.40;;;1.30;;
14381;SDS011;7275;50.328;8.720;2023-04-24T02:50:14;1.80;;;1.50;;
14381;SDS011;7275;50.328;8.720;2023-04-24T02:52:42;2.27;;;1.37;;
14381;SDS011;7275;50.328;8.720;2023-04-24T02:55:09;1.50;;;1.33;;
14381;SDS011;7275;50.328;8.720;2023-04-24T02:57:37;1.70;;;1.60;;
14381;SDS011;7275;50.328;8.720;2023-04-24T03:00:05;1.67;;;1.57;;
14381;SDS011;7275;50.328;8.720;2023-04-24T03:02:34;1.77;;;1.57;;
14381;SDS011;7275;50.328;8.720;2023-04-24T03:05:02;2.03;;;1.63;;
14381;SDS011;7275;50.328;8.720;2023-04-24T03:07:31;1.90;;;1.70;;
14381;SDS011;7275;50.328;8.720;2023-04-24T03:09:59;2.13;;;1.90;;
14381;SDS011;7275;50.328;8.720;2023-04-24T03:12:26;1.80;;;1.70;;
14381;SDS011;7275;50.328;8.720;2023-04-24T03:14:54;2.17;;;1.70;;
14381;SDS011;7275;50.328;8.720;2023-04-24T03:17:22;1.73;;;1.60;;
14381;SDS011;7275;50.328;8.720;2023-04-24T03:19:49;3.13;;;1.50;;
14381;SDS011;7275;50.328;8.720;2023-04-24T03:22:17;1.60;;;1.50;;
14381;SDS011;7275;50.328;8.720;2023-04-24T03:24:46;2.67;;;1.63;;
14381;SDS011;7275;50.328;8.720;2023-04-24T03:27:13;3.50;;;1.70;;
14381;SDS011;7275;50.328;8.720;2023-04-24T03:29:41;1.80;;;1.50;;
14381;SDS011;7275;50.328;8.720;2023-04-24T03:32:08;1.53;;;1.30;;
14381;SDS011;7275;50.328;8.720;2023-04-24T03:34:36;2.30;;;1.70;;
14381;SDS011;7275;50.328;8.720;2023-04-24T03:37:03;1.57;;;1.47;;
14381;SDS011;7275;50.328;8.720;2023-04-24T03:39:31;1.90;;;1.70;;
14381;SDS011;7275;50.328;8.720;2023-04-24T03:42:00;1.63;;;1.33;;
14381;SDS011;7275;50.328;8.720;2023-04-24T03:44:27;1.47;;;1.30;;
14381;SDS011;7275;50.328;8.720;2023-04-24T03:46:55;1.50;;;1.40;;
14381;SDS011;7275;50.328;8.720;2023-04-24T03:49:22;1.30;;;1.20;;
14381;SDS011;7275;50.328;8.720;2023-04-24T03:51:50;2.47;;;1.30;;
14381;SDS011;7275;50.328;8.720;2023-04-24T03:54:18;1.40;;;1.30;;
14381;SDS011;7275;50.328;8.720;2023-04-24T03:56:46;1.60;;;1.50;;
14381;SDS011;7275;50.328;8.720;2023-04-24T03:59:15;1.40;;;1.30;;
14381;SDS011;7275;50.328;8.720;2023-04-24T04:01:42;1.60;;;1.47;;
14381;SDS011;7275;50.328;8.720;2023-04-24T04:04:10;1.50;;;1.10;;
14381;SDS011;7275;50.328;8.720;2023-04-24T04:06:38;1.20;;;1.10;;
14381;SDS011;7275;50.328;8.720;2023-04-24T04:09:05;1.60;;;1.00;;
14381;SDS011;7275;50.328;8.720;2023-04-24T04:11:33;1.20;;;1.10;;
14381;SDS011;7275;50.328;8.720;2023-04-24T04:14:01;1.13;;;1.03;;
14381;SDS011;7275;50.328;8.720;2023-04-24T04:16:30;1.00;;;1.00;;
14381;SDS011;7275;50.328;8.720;2023-04-24T04:18:57;2.50;;;1.20;;
14381;SDS011;7275;50.328;8.720;2023-04-24T04:21:25;2.43;;;1.10;;
14381;SDS011;7275;50.328;8.720;2023-04-24T04:23:54;0.97;;;0.97;;
14381;SDS011;7275;50.328;8.720;2023-04-24T04:26:22;1.30;;;1.10;;
14381;SDS011;7275;50.328;8.720;2023-04-24T04:28:51;1.23;;;1.13;;
14381;SDS011;7275;50.328;8.720;2023-04-24T04:31:19;1.10;;;0.93;;
14381;SDS011;7275;50.328;8.720;2023-04-24T04:33:48;1.10;;;1.00;;
14381;SDS011;7275;50.328;8.720;2023-04-24T04:36:16;1.33;;;1.17;;
14381;SDS011;7275;50.328;8.720;2023-04-24T04:38:44;1.17;;;1.07;;
14381;SDS011;7275;50.328;8.720;2023-04-24T04:41:12;1.20;;;1.10;;
14381;SDS011;7275;50.328;8.720;2023-04-24T04:43:40;1.17;;;1.07;;
14381;SDS011;7275;50.328;8.720;2023-04-24T04:46:08;1.33;;;1.00;;
14381;SDS011;7275;50.328;8.720;2023-04-24T04:48:37;1.80;;;1.07;;
14381;SDS011;7275;50.328;8.720;2023-04-24T04:51:06;1.20;;;1.10;;
14381;SDS011;7275;50.328;8.720;2023-04-24T04:53:34;1.10;;;1.03;;
14381;SDS011;7275;50.328;8.720;2023-04-24T04:56:02;1.20;;;1.10;;
14381;SDS011;7275;50.328;8.720;2023-04-24T04:58:29;1.87;;;1.00;;
14381;SDS011;7275;50.328;8.720;2023-04-24T05:00:57;1.17;;;1.10;;
14381;SDS011;7275;50.328;8.720;2023-04-24T05:03:25;1.30;;;1.20;;
14381;SDS011;7275;50.328;8.720;2023-04-24T05:05:52;1.63;;;1.23;;
14381;SDS011;7275;50.328;8.720;2023-04-24T05:08:21;1.20;;;1.10;;
14381;SDS011;7275;50.328;8.720;2023-04-24T05:10:53;1.30;;;1.10;;
14381;SDS011;7275;50.328;8.720;2023-04-24T05:13:20;1.30;;;1.20;;
14381;SDS011;7275;50.328;8.720;2023-04-24T05:16:04;1.33;;;1.20;;
14381;SDS011;7275;50.328;8.720;2023-04-24T05:18:32;1.13;;;1.03;;
14381;SDS011;7275;50.328;8.720;2023-04-24T05:21:00;1.13;;;1.03;;
14381;SDS011;7275;50.328;8.720;2023-04-24T05:23:29;1.30;;;1.20;;
14381;SDS011;7275;50.328;8.720;2023-04-24T05:25:56;1.60;;;1.20;;
14381;SDS011;7275;50.328;8.720;2023-04-24T05:28:24;1.33;;;1.10;;
14381;SDS011;7275;50.328;8.720;2023-04-24T05:30:54;1.30;;;1.20;;
14381;SDS011;7275;50.328;8.720;2023-04-24T05:33:22;1.20;;;1.10;;
14381;SDS011;7275;50.328;8.720;2023-04-24T05:35:50;1.17;;;1.07;;
14381;SDS011;7275;50.328;8.720;2023-04-24T05:38:18;1.83;;;1.10;;
14381;SDS011;7275;50.328;8.720;2023-04-24T05:40:47;1.17;;;0.97;;
14381;SDS011;7275;50.328;8.720;2023-04-24T05:43:14;1.10;;;1.00;;
14381;SDS011;7275;50.328;8.720;2023-04-24T05:45:42;2.20;;;1.20;;
14381;SDS011;7275;50.328;8.720;2023-04-24T05:48:09;1.30;;;1.20;;
14381;SDS011;7275;50.328;8.720;2023-04-24T05:50:37;2.73;;;1.40;;
14381;SDS011;7275;50.328;8.720;2023-04-24T05:53:04;1.30;;;1.20;;
14381;SDS011;7275;50.328;8.720;2023-04-24T05:55:33;1.00;;;1.00;;
14381;SDS011;7275;50.328;8.720;2023-04-24T05:58:03;1.33;;;1.20;;
14381;SDS011;7275;50.328;8.720;2023-04-24T06:00:30;1.37;;;1.27;;
14381;SDS011;7275;50.328;8.720;2023-04-24T06:02:59;1.67;;;1.20;;
14381;SDS011;7275;50.328;8.720;2023-04-24T06:05:27;1.70;;;1.30;;
14381;SDS011;7275;50.328;8.720;2023-04-24T06:07:55;1.40;;;1.27;;
14381;SDS011;7275;50.328;8.720;2023-04-24T06:10:22;1.50;;;1.27;;
14381;SDS011;7275;50.328;8.720;2023-04-24T06:12:50;1.30;;;1.20;;
14381;SDS011;7275;50.328;8.720;2023-04-24T06:15:19;1.47;;;1.23;;
14381;SDS011;7275;50.328;8.720;2023-04-24T06:17:47;1.43;;;1.33;;
14381;SDS011;7275;50.328;8.720;2023-04-24T06:20:14;1.40;;;1.30;;
14381;SDS011;7275;50.328;8.720;2023-04-24T06:22:42;1.57;;;1.40;;
14381;SDS011;7275;50.328;8.720;2023-04-24T06:25:09;1.93;;;1.50;;
14381;SDS011;7275;50.328;8.720;2023-04-24T06:27:37;1.70;;;1.60;;
14381;SDS011;7275;50.328;8.720;2023-04-24T06:30:05;1.47;;;1.33;;
14381;SDS011;7275;50.328;8.720;2023-04-24T06:32:34;1.60;;;1.50;;
14381;SDS011;7275;50.328;8.720;2023-04-24T06:35:02;1.93;;;1.70;;
14381;SDS011;7275;50.328;8.720;2023-04-24T06:37:30;1.80;;;1.70;;
14381;SDS011;7275;50.328;8.720;2023-04-24T06:39:58;2.10;;;1.90;;
14381;SDS011;7275;50.328;8.720;2023-04-24T06:42:25;1.90;;;1.80;;
14381;SDS011;7275;50.328;8.720;2023-04-24T06:44:53;2.10;;;1.90;;
14381;SDS011;7275;50.328;8.720;2023-04-24T06:47:20;2.50;;;2.30;;
14381;SDS011;7275;50.328;8.720;2023-04-24T06:49:49;2.33;;;2.13;;
14381;SDS011;7275;50.328;8.720;2023-04-24T06:52:18;2.50;;;2.30;;
14381;SDS011;7275;50.328;8.720;2023-04-24T06:54:46;2.53;;;2.33;;
14381;SDS011;7275;50.328;8.720;2023-04-24T06:57:13;2.50;;;2.27;;
14381;SDS011;7275;50.328;8.720;2023-04-24T06:59:42;2.30;;;2.10;;
14381;SDS011;7275;50.328;8.720;2023-04-24T07:02:09;2.30;;;2.10;;
14381;SDS011;7275;50.328;8.720;2023-04-24T07:04:37;3.27;;;2.23;;
14381;SDS011;7275;50.328;8.720;2023-04-24T07:07:06;2.90;;;2.27;;
14381;SDS011;7275;50.328;8.720;2023-04-24T07:09:35;4.50;;;2.10;;
14381;SDS011;7275;50.328;8.720;2023-04-24T07:12:04;2.20;;;1.97;;
14381;SDS011;7275;50.328;8.720;2023-04-24T07:14:33;2.20;;;2.00;;
14381;SDS011;7275;50.328;8.720;2023-04-24T07:17:01;2.03;;;1.90;;
14381;SDS011;7275;50.328;8.720;2023-04-24T07:19:29;2.10;;;2.00;;
14381;SDS011;7275;50.328;8.720;2023-04-24T07:21:57;2.10;;;2.00;;
14381;SDS011;7275;50.328;8.720;2023-04-24T07:24:26;2.10;;;1.90;;
14381;SDS011;7275;50.328;8.720;2023-04-24T07:26:56;1.90;;;1.70;;
14381;SDS011;7275;50.328;8.720;2023-04-24T07:29:23;2.00;;;1.70;;
14381;SDS011;7275;50.328;8.720;2023-04-24T07:31:51;1.83;;;1.73;;
14381;SDS011;7275;50.328;8.720;2023-04-24T07:34:20;1.87;;;1.60;;
14381;SDS011;7275;50.328;8.720;2023-04-24T07:36:47;1.67;;;1.57;;
14381;SDS011;7275;50.328;8.720;2023-04-24T07:39:15;2.80;;;1.80;;
14381;SDS011;7275;50.328;8.720;2023-04-24T07:41:44;2.10;;;1.63;;
14381;SDS011;7275;50.328;8.720;2023-04-24T07:44:11;1.90;;;1.70;;
14381;SDS011;7275;50.328;8.720;2023-04-24T07:46:38;1.70;;;1.60;;
14381;SDS011;7275;50.328;8.720;2023-04-24T07:49:07;1.80;;;1.70;;
14381;SDS011;7275;50.328;8.720;2023-04-24T07:51:39;1.80;;;1.70;;
14381;SDS011;7275;50.328;8.720;2023-04-24T07:54:07;1.67;;;1.57;;
14381;SDS011;7275;50.328;8.720;2023-04-24T07:56:34;1.87;;;1.70;;
14381;SDS011;7275;50.328;8.720;2023-04-24T07:59:06;2.20;;;1.40;;
14381;SDS011;7275;50.328;8.720;2023-04-24T08:01:33;2.67;;;1.77;;
14381;SDS011;7275;50.328;8.720;2023-04-24T08:04:01;2.70;;;1.60;;
14381;SDS011;7275;50.328;8.720;2023-04-24T08:06:29;1.80;;;1.70;;
14381;SDS011;7275;50.328;8.720;2023-04-24T08:08:58;1.63;;;1.53;;
14381;SDS011;7275;50.328;8.720;2023-04-24T08:11:25;1.73;;;1.63;;
14381;SDS011;7275;50.328;8.720;2023-04-24T08:13:53;1.90;;;1.80;;
14381;SDS011;7275;50.328;8.720;2023-04-24T08:16:23;2.00;;;1.80;;
14381;SDS011;7275;50.328;8.720;2023-04-24T08:18:51;1.70;;;1.60;;
14381;SDS011;7275;50.328;8.720;2023-04-24T08:21:18;1.83;;;1.73;;
14381;SDS011;7275;50.328;8.720;2023-04-24T08:23:46;1.77;;;1.67;;
14381;SDS011;7275;50.328;8.720;2023-04-24T08:26:14;2.10;;;1.60;;
14381;SDS011;7275;50.328;8.720;2023-04-24T08:28:42;1.70;;;1.60;;
14381;SDS011;7275;50.328;8.720;2023-04-24T08:31:09;1.67;;;1.57;;
14381;SDS011;7275;50.328;8.720;2023-04-24T08:33:38;1.67;;;1.57;;
14381;SDS011;7275;50.328;8.720;2023-04-24T08:36:07;1.77;;;1.67;;
14381;SDS011;7275;50.328;8.720;2023-04-24T08:38:34;1.77;;;1.40;;
14381;SDS011;7275;50.328;8.720;2023-04-24T08:41:02;1.53;;;1.43;;
14381;SDS011;7275;50.328;8.720;2023-04-24T08:43:30;1.50;;;1.40;;
14381;SDS011;7275;50.328;8.720;2023-04-24T08:46:00;1.50;;;1.30;;
14381;SDS011;7275;50.328;8.720;2023-04-24T08:48:32;1.70;;;1.50;;
14381;SDS011;7275;50.328;8.720;2023-04-24T08:51:01;1.83;;;1.23;;
14381;SDS011;7275;50.328;8.720;2023-04-24T08:53:33;1.70;;;1.20;;
14381;SDS011;7275;50.328;8.720;2023-04-24T08:56:02;2.53;;;1.20;;
14381;SDS011;7275;50.328;8.720;2023-04-24T08:58:31;1.30;;;1.20;;
14381;SDS011;7275;50.328;8.720;2023-04-24T09:00:58;1.30;;;1.20;;
14381;SDS011;7275;50.328;8.720;2023-04-24T09:03:27;1.60;;;1.40;;
14381;SDS011;7275;50.328;8.720;2023-04-24T09:05:55;1.20;;;1.10;;
14381;SDS011;7275;50.328;8.720;2023-04-24T09:08:25;1.33;;;1.20;;
14381;SDS011;7275;50.328;8.720;2023-04-24T09:10:55;1.33;;;1.23;;
14381;SDS011;7275;50.328;8.720;2023-04-24T09:13:24;1.30;;;1.20;;
14381;SDS011;7275;50.328;8.720;2023-04-24T09:15:51;1.27;;;1.17;;
14381;SDS011;7275;50.328;8.720;2023-04-24T09:18:20;1.13;;;1.03;;
14381;SDS011;7275;50.328;8.720;2023-04-24T09:20:57;1.10;;;1.00;;
14381;SDS011;7275;50.328;8.720;2023-04-24T09:23:28;1.13;;;1.13;;
14381;SDS011;7275;50.328;8.720;2023-04-24T09:25:56;1.53;;;1.20;;
14381;SDS011;7275;50.328;8.720;2023-04-24T09:28:29;1.67;;;1.30;;
14381;SDS011;7275;50.328;8.720;2023-04-24T09:31:04;1.20;;;1.10;;
14381;SDS011;7275;50.328;8.720;2023-04-24T09:33:33;1.30;;;1.20;;
14381;SDS011;7275;50.328;8.720;2023-04-24T09:36:01;1.30;;;1.20;;
14381;SDS011;7275;50.328;8.720;2023-04-24T09:38:35;1.57;;;1.40;;
14381;SDS011;7275;50.328;8.720;2023-04-24T09:41:05;1.47;;;1.37;;
14381;SDS011;7275;50.328;8.720;2023-04-24T09:43:34;1.43;;;1.20;;
14381;SDS011;7275;50.328;8.720;2023-04-24T09:46:04;1.20;;;1.10;;
14381;SDS011;7275;50.328;8.720;2023-04-24T09:48:33;0.90;;;0.90;;
14381;SDS011;7275;50.328;8.720;2023-04-24T09:51:03;1.07;;;1.00;;
14381;SDS011;7275;50.328;8.720;2023-04-24T09:53:34;1.20;;;1.10;;
14381;SDS011;7275;50.328;8.720;2023-04-24T09:56:02;1.40;;;1.30;;
14381;SDS011;7275;50.328;8.720;2023-04-24T09:58:34;1.33;;;1.23;;
14381;SDS011;7275;50.328;8.720;2023-04-24T10:01:03;1.00;;;1.00;;
14381;SDS011;7275;50.328;8.720;2023-04-24T10:03:32;1.20;;;0.97;;
14381;SDS011;7275;50.328;8.720;2023-04-24T10:06:00;1.20;;;1.10;;
14381;SDS011;7275;50.328;8.720;2023-04-24T10:08:32;0.90;;;0.90;;
14381;SDS011;7275;50.328;8.720;2023-04-24T10:11:02;0.90;;;0.90;;
14381;SDS011;7275;50.328;8.720;2023-04-24T10:13:29;0.87;;;0.87;;
14381;SDS011;7275;50.328;8.720;2023-04-24T10:15:57;1.00;;;0.90;;
14381;SDS011;7275;50.328;8.720;2023-04-24T10:18:27;0.80;;;0.80;;
14381;SDS011;7275;50.328;8.720;2023-04-24T10:20:55;1.00;;;0.90;;
14381;SDS011;7275;50.328;8.720;2023-04-24T10:23:23;0.90;;;0.70;;
14381;SDS011;7275;50.328;8.720;2023-04-24T10:25:53;1.50;;;0.70;;
14381;SDS011;7275;50.328;8.720;2023-04-24T10:28:21;0.97;;;0.60;;
14381;SDS011;7275;50.328;8.720;2023-04-24T10:30:51;1.10;;;0.80;;
14381;SDS011;7275;50.328;8.720;2023-04-24T10:33:21;0.70;;;0.70;;
14381;SDS011;7275;50.328;8.720;2023-04-24T10:35:50;0.77;;;0.73;;
14381;SDS011;7275;50.328;8.720;2023-04-24T10:38:25;0.73;;;0.70;;
14381;SDS011;7275;50.328;8.720;2023-04-24T10:40:58;0.60;;;0.60;;
14381;SDS011;7275;50.328;8.720;2023-04-24T10:43:35;0.73;;;0.60;;
14381;SDS011;7275;50.328;8.720;2023-04-24T10:46:03;0.60;;;0.60;;
14381;SDS011;7275;50.328;8.720;2023-04-24T10:48:32;0.97;;;0.73;;
14381;SDS011;7275;50.328;8.720;2023-04-24T10:51:00;0.70;;;0.70;;
14381;SDS011;7275;50.328;8.720;2023-04-24T10:53:29;0.70;;;0.70;;
14381;SDS011;7275;50.328;8.720;2023-04-24T10:55:59;0.87;;;0.70;;
14381;SDS011;7275;50.328;8.720;2023-04-24T10:58:37;0.93;;;0.70;;
14381;SDS011;7275;50.328;8.720;2023-04-24T11:01:06;0.60;;;0.60;;
14381;SDS011;7275;50.328;8.720;2023-04-24T11:03:34;0.50;;;0.50;;
14381;SDS011;7275;50.328;8.720;2023-04-24T11:06:04;0.50;;;0.50;;
14381;SDS011;7275;50.328;8.720;2023-04-24T11:08:37;0.60;;;0.60;;
14381;SDS011;7275;50.328;8.720;2023-04-24T11:11:10;0.50;;;0.50;;
14381;SDS011;7275;50.328;8.720;2023-04-24T11:16:33;0.50;;;0.50;;
14381;SDS011;7275;50.328;8.720;2023-04-24T11:19:05;0.60;;;0.60;;
14381;SDS011;7275;50.328;8.720;2023-04-24T11:21:40;1.23;;;0.70;;
14381;SDS011;7275;50.328;8.720;2023-04-24T11:24:22;1.00;;;0.70;;
14381;SDS011;7275;50.328;8.720;2023-04-24T11:26:52;0.73;;;0.60;;
14381;SDS011;7275;50.328;8.720;2023-04-24T11:29:21;0.73;;;0.50;;
14381;SDS011;7275;50.328;8.720;2023-04-24T11:31:50;0.37;;;0.37;;
14381;SDS011;7275;50.328;8.720;2023-04-24T11:34:18;0.60;;;0.60;;
14381;SDS011;7275;50.328;8.720;2023-04-24T11:36:45;0.47;;;0.47;;
14381;SDS011;7275;50.328;8.720;2023-04-24T11:39:14;0.57;;;0.57;;
14381;SDS011;7275;50.328;8.720;2023-04-24T11:41:42;0.50;;;0.50;;
14381;SDS011;7275;50.328;8.720;2023-04-24T11:44:11;0.70;;;0.70;;
14381;SDS011;7275;50.328;8.720;2023-04-24T11:46:41;0.60;;;0.60;;
14381;SDS011;7275;50.328;8.720;2023-04-24T11:49:09;0.60;;;0.60;;
14381;SDS011;7275;50.328;8.720;2023-04-24T11:51:37;1.60;;;0.73;;
14381;SDS011;7275;50.328;8.720;2023-04-24T11:54:18;0.70;;;0.70;;
14381;SDS011;7275;50.328;8.720;2023-04-24T11:56:46;0.67;;;0.67;;
14381;SDS011;7275;50.328;8.720;2023-04-24T11:59:15;1.00;;;0.70;;
14381;SDS011;7275;50.328;8.720;2023-04-24T12:01:43;1.33;;;0.80;;
14381;SDS011;7275;50.328;8.720;2023-04-24T12:04:11;0.83;;;0.80;;
14381;SDS011;7275;50.328;8.720;2023-04-24T12:06:40;0.97;;;0.97;;
14381;SDS011;7275;50.328;8.720;2023-04-24T12:09:08;0.97;;;0.80;;
14381;SDS011;7275;50.328;8.720;2023-04-24T12:11:52;1.10;;;0.90;;
14381;SDS011;7275;50.328;8.720;2023-04-24T12:14:21;0.90;;;0.90;;
14381;SDS011;7275;50.328;8.720;2023-04-24T12:16:49;1.30;;;1.10;;
14381;SDS011;7275;50.328;8.720;2023-04-24T12:19:18;1.30;;;1.20;;
14381;SDS011;7275;50.328;8.720;2023-04-24T12:22:00;1.20;;;1.10;;
14381;SDS011;7275;50.328;8.720;2023-04-24T12:24:29;1.23;;;1.10;;
14381;SDS011;7275;50.328;8.720;2023-04-24T12:26:56;1.20;;;1.10;;
14381;SDS011;7275;50.328;8.720;2023-04-24T12:29:26;1.00;;;1.00;;
14381;SDS011;7275;50.328;8.720;2023-04-24T12:31:53;1.40;;;1.30;;
14381;SDS011;7275;50.328;8.720;2023-04-24T12:34:22;1.10;;;1.00;;
14381;SDS011;7275;50.328;8.720;2023-04-24T12:36:51;1.20;;;1.10;;
14381;SDS011;7275;50.328;8.720;2023-04-24T12:39:19;1.40;;;1.30;;
14381;SDS011;7275;50.328;8.720;2023-04-24T12:41:50;1.43;;;1.30;;
14381;SDS011;7275;50.328;8.720;2023-04-24T12:44:29;1.20;;;1.10;;
14381;SDS011;7275;50.328;8.720;2023-04-24T12:46:58;1.30;;;1.20;;
14381;SDS011;7275;50.328;8.720;2023-04-24T12:49:25;1.60;;;1.47;;
14381;SDS011;7275;50.328;8.720;2023-04-24T12:51:53;1.73;;;1.57;;
14381;SDS011;7275;50.328;8.720;2023-04-24T12:54:21;1.27;;;1.13;;
14381;SDS011;7275;50.328;8.720;2023-04-24T12:56:49;0.80;;;0.80;;
14381;SDS011;7275;50.328;8.720;2023-04-24T12:59:16;0.70;;;0.70;;
14381;SDS011;7275;50.328;8.720;2023-04-24T13:01:45;1.87;;;0.60;;
14381;SDS011;7275;50.328;8.720;2023-04-24T13:04:13;0.77;;;0.70;;
14381;SDS011;7275;50.328;8.720;2023-04-24T13:06:41;0.70;;;0.67;;
14381;SDS011;7275;50.328;8.720;2023-04-24T13:09:09;0.60;;;0.50;;
14381;SDS011;7275;50.328;8.720;2023-04-24T13:11:36;0.50;;;0.50;;
14381;SDS011;7275;50.328;8.720;2023-04-24T13:14:04;0.60;;;0.60;;
14381;SDS011;7275;50.328;8.720;2023-04-24T13:16:31;0.60;;;0.60;;
14381;SDS011;7275;50.328;8.720;2023-04-24T13:19:00;0.60;;;0.60;;
14381;SDS011;7275;50.328;8.720;2023-04-24T13:21:28;0.65;;;0.65;;
14381;SDS011;7275;50.328;8.720;2023-04-24T13:23:56;0.80;;;0.80;;
14381;SDS011;7275;50.328;8.720;2023-04-24T13:26:24;1.10;;;1.00;;
14381;SDS011;7275;50.328;8.720;2023-04-24T13:28:51;0.93;;;0.93;;
14381;SDS011;7275;50.328;8.720;2023-04-24T13:31:19;1.70;;;1.42;;
14381;SDS011;7275;50.328;8.720;2023-04-24T13:33:46;1.48;;;1.33;;
14381;SDS011;7275;50.328;8.720;2023-04-24T13:36:15;1.38;;;1.10;;
14381;SDS011;7275;50.328;8.720;2023-04-24T13:38:43;1.42;;;1.33;;
14381;SDS011;7275;50.328;8.720;2023-04-24T13:41:11;1.88;;;1.30;;
14381;SDS011;7275;50.328;8.720;2023-04-24T13:43:38;1.95;;;1.60;;
14381;SDS011;7275;50.328;8.720;2023-04-24T13:46:08;1.58;;;1.48;;
14381;SDS011;7275;50.328;8.720;2023-04-24T13:48:35;1.50;;;1.40;;
14381;SDS011;7275;50.328;8.720;2023-04-24T13:51:03;2.15;;;1.50;;
14381;SDS011;7275;50.328;8.720;2023-04-24T13:53:32;3.13;;;1.35;;
14381;SDS011;7275;50.328;8.720;2023-04-24T13:56:02;2.10;;;1.52;;
14381;SDS011;7275;50.328;8.720;2023-04-24T13:58:29;1.80;;;1.50;;
14381;SDS011;7275;50.328;8.720;2023-04-24T14:00:56;3.30;;;2.00;;
14381;SDS011;7275;50.328;8.720;2023-04-24T14:03:24;2.28;;;2.00;;
14381;SDS011;7275;50.328;8.720;2023-04-24T14:05:52;2.08;;;1.88;;
14381;SDS011;7275;50.328;8.720;2023-04-24T14:08:19;2.10;;;1.75;;
14381;SDS011;7275;50.328;8.720;2023-04-24T14:10:49;2.00;;;1.85;;
14381;SDS011;7275;50.328;8.720;2023-04-24T14:13:17;2.72;;;2.00;;
14381;SDS011;7275;50.328;8.720;2023-04-24T14:15:45;2.90;;;2.10;;
14381;SDS011;7275;50.328;8.720;2023-04-24T14:18:13;2.10;;;1.90;;
14381;SDS011;7275;50.328;8.720;2023-04-24T14:20:40;2.72;;;2.03;;
14381;SDS011;7275;50.328;8.720;2023-04-24T14:23:08;2.17;;;1.88;;
14381;SDS011;7275;50.328;8.720;2023-04-24T14:25:35;2.28;;;1.70;;
14381;SDS011;7275;50.328;8.720;2023-04-24T14:28:05;2.08;;;1.88;;
14381;SDS011;7275;50.328;8.720;2023-04-24T14:30:33;2.35;;;2.10;;
14381;SDS011;7275;50.328;8.720;2023-04-24T14:33:00;2.28;;;1.83;;
14381;SDS011;7275;50.328;8.720;2023-04-24T14:35:28;2.88;;;1.80;;
14381;SDS011;7275;50.328;8.720;2023-04-24T14:37:57;2.00;;;1.88;;
14381;SDS011;7275;50.328;8.720;2023-04-24T14:40:24;1.92;;;1.75;;
14381;SDS011;7275;50.328;8.720;2023-04-24T14:43:13;2.65;;;1.83;;
14381;SDS011;7275;50.328;8.720;2023-04-24T14:45:41;2.17;;;1.80;;
14381;SDS011;7275;50.328;8.720;2023-04-24T14:48:08;1.58;;;1.48;;
14381;SDS011;7275;50.328;8.720;2023-04-24T14:50:37;2.40;;;2.00;;
14381;SDS011;7275;50.328;8.720;2023-04-24T14:53:04;2.67;;;2.05;;
14381;SDS011;7275;50.328;8.720;2023-04-24T14:55:32;2.57;;;2.00;;
14381;SDS011;7275;50.328;8.720;2023-04-24T14:58:02;3.33;;;2.10;;
14381;SDS011;7275;50.328;8.720;2023-04-24T15:00:31;2.90;;;2.00;;
14381;SDS011;7275;50.328;8.720;2023-04-24T15:03:00;2.90;;;2.10;;
14381;SDS011;7275;50.328;8.720;2023-04-24T15:05:28;1.80;;;1.70;;
14381;SDS011;7275;50.328;8.720;2023-04-24T15:07:56;2.80;;;1.87;;
14381;SDS011;7275;50.328;8.720;2023-04-24T15:10:24;1.73;;;1.63;;
14381;SDS011;7275;50.328;8.720;2023-04-24T15:12:52;2.63;;;2.10;;